Time;durP1;ratioP1;P1;durP2;ratioP2;P2;SDS_P1;SDS_P2;PMS_P1;PMS_P2;Temp;Humidity;BMP_temperature;BMP_pressure;BME280_temperature;BME280_humidity;BME280_pressure;Samples;Min_cycle;Max_cycle;Signal;HPM_P1;HPM_P2
2023/06/29 00:01:54;;;;;;;56.90;2.40;;;;;;;;;;5031148;28;20921;-67
2023/06/29 00:04:21;;;;;;;57.07;2.50;;;;;;;;;;5036337;28;20894;-67
2023/06/29 00:06:49;;;;;;;56.97;2.30;;;;;;;;;;5037322;28;20985;-67
2023/06/29 00:09:17;;;;;;;56.87;2.17;;;;;;;;;;5037526;28;20480;-67
2023/06/29 00:11:44;;;;;;;57.07;2.47;;;;;;;;;;5037637;28;20475;-68
2023/06/29 00:14:13;;;;;;;57.40;2.33;;;;;;;;;;5037763;28;20452;-67
2023/06/29 00:16:40;;;;;;;56.90;2.30;;;;;;;;;;5037201;28;20993;-68
2023/06/29 00:19:08;;;;;;;56.93;2.10;;;;;;;;;;5037610;28;20492;-68
2023/06/29 00:21:35;;;;;;;56.83;2.10;;;;;;;;;;5037593;28;20456;-67
2023/06/29 00:24:02;;;;;;;56.97;2.13;;;;;;;;;;5037720;28;20449;-67
2023/06/29 00:26:30;;;;;;;57.03;2.40;;;;;;;;;;5037289;28;20492;-67
2023/06/29 00:28:57;;;;;;;57.20;2.60;;;;;;;;;;5037675;28;20826;-68
2023/06/29 00:31:26;;;;;;;56.97;2.50;;;;;;;;;;5037618;28;20453;-67
2023/06/29 00:33:53;;;;;;;57.27;3.00;;;;;;;;;;5037378;28;20759;-67
2023/06/29 00:36:20;;;;;;;57.00;2.50;;;;;;;;;;5037299;28;20465;-67
2023/06/29 00:38:47;;;;;;;56.80;2.37;;;;;;;;;;5037591;28;20481;-67
2023/06/29 00:41:14;;;;;;;57.17;2.70;;;;;;;;;;5037418;28;20940;-68
2023/06/29 00:43:43;;;;;;;56.93;2.27;;;;;;;;;;5037397;28;20456;-68
2023/06/29 00:46:10;;;;;;;57.03;2.40;;;;;;;;;;5037012;28;21046;-67
2023/06/29 00:48:39;;;;;;;56.77;2.20;;;;;;;;;;5037281;28;20448;-67
2023/06/29 00:51:06;;;;;;;57.37;2.70;;;;;;;;;;5037548;28;20449;-67
2023/06/29 00:53:33;;;;;;;57.07;2.50;;;;;;;;;;5037330;28;20445;-67
2023/06/29 00:56:02;;;;;;;57.20;2.60;;;;;;;;;;5031456;28;20484;-67
2023/06/29 00:58:30;;;;;;;57.40;2.50;;;;;;;;;;5037115;28;20530;-67
2023/06/29 01:00:57;;;;;;;57.17;2.70;;;;;;;;;;5037110;28;20976;-67
2023/06/29 01:03:24;;;;;;;58.97;2.70;;;;;;;;;;5037351;28;20556;-68
2023/06/29 01:05:55;;;;;;;56.77;2.30;;;;;;;;;;5036763;28;21000;-67
2023/06/29 01:08:24;;;;;;;57.17;2.30;;;;;;;;;;5037237;28;20461;-68
2023/06/29 01:10:51;;;;;;;56.77;2.40;;;;;;;;;;5037157;28;20449;-68
2023/06/29 01:13:19;;;;;;;56.73;2.50;;;;;;;;;;5037078;28;20444;-68
2023/06/29 01:15:47;;;;;;;57.30;2.33;;;;;;;;;;5033851;28;20473;-67
2023/06/29 01:18:16;;;;;;;56.83;2.30;;;;;;;;;;5034134;28;20484;-68
2023/06/29 01:20:44;;;;;;;56.97;2.30;;;;;;;;;;5034428;28;20543;-68
2023/06/29 01:23:15;;;;;;;57.30;2.30;;;;;;;;;;5033812;28;20453;-68
2023/06/29 01:25:44;;;;;;;56.97;2.10;;;;;;;;;;5033513;28;20461;-68
2023/06/29 01:28:11;;;;;;;56.77;2.30;;;;;;;;;;5033763;28;20446;-68
2023/06/29 01:30:45;;;;;;;57.37;2.67;;;;;;;;;;5034071;28;20441;-68
2023/06/29 01:33:12;;;;;;;57.00;2.50;;;;;;;;;;5033901;28;20455;-68
2023/06/29 01:35:39;;;;;;;56.97;2.30;;;;;;;;;;5033337;28;20840;-68
2023/06/29 01:38:10;;;;;;;57.57;2.40;;;;;;;;;;5033477;28;20456;-68
2023/06/29 01:40:39;;;;;;;56.90;2.30;;;;;;;;;;5033593;28;20837;-67
2023/06/29 01:43:07;;;;;;;57.00;2.20;;;;;;;;;;5033671;28;20453;-68
2023/06/29 01:45:35;;;;;;;57.40;2.20;;;;;;;;;;5033295;28;20445;-68
2023/06/29 01:48:03;;;;;;;56.67;2.20;;;;;;;;;;5033486;28;20456;-68
2023/06/29 01:50:30;;;;;;;56.97;2.50;;;;;;;;;;5033466;28;20453;-67
2023/06/29 01:52:57;;;;;;;57.17;2.67;;;;;;;;;;5031687;28;20457;-67
2023/06/29 01:55:25;;;;;;;57.07;2.90;;;;;;;;;;5033068;28;20828;-68
2023/06/29 01:57:52;;;;;;;57.20;2.63;;;;;;;;;;5033441;28;20445;-68
2023/06/29 02:00:22;;;;;;;57.13;2.50;;;;;;;;;;5033221;28;20456;-68
2023/06/29 02:02:49;;;;;;;57.20;2.40;;;;;;;;;;5033096;28;20552;-67
2023/06/29 02:05:17;;;;;;;57.30;2.60;;;;;;;;;;5033173;28;20453;-67
2023/06/29 02:07:44;;;;;;;56.73;2.30;;;;;;;;;;5033147;28;20473;-67
2023/06/29 02:10:12;;;;;;;57.33;2.40;;;;;;;;;;5032951;28;20464;-68
2023/06/29 02:12:39;;;;;;;57.03;2.57;;;;;;;;;;5033255;28;20952;-68
2023/06/29 02:15:07;;;;;;;57.27;2.40;;;;;;;;;;5032650;28;20449;-68
2023/06/29 02:17:35;;;;;;;57.20;2.50;;;;;;;;;;5032931;28;20466;-68
2023/06/29 02:20:02;;;;;;;56.97;2.80;;;;;;;;;;5032823;28;20866;-68
2023/06/29 02:22:29;;;;;;;56.80;2.37;;;;;;;;;;5032950;28;20448;-68
2023/06/29 02:24:57;;;;;;;57.30;2.80;;;;;;;;;;5033216;28;20464;-67
2023/06/29 02:27:24;;;;;;;57.10;2.70;;;;;;;;;;5031338;28;20477;-68
2023/06/29 02:29:51;;;;;;;57.27;2.40;;;;;;;;;;5032458;28;20960;-68
2023/06/29 02:32:18;;;;;;;56.77;2.43;;;;;;;;;;5032797;28;20449;-69
2023/06/29 02:34:46;;;;;;;56.77;2.40;;;;;;;;;;5032570;28;20451;-67
2023/06/29 02:37:13;;;;;;;56.97;2.40;;;;;;;;;;5032223;28;20844;-67
2023/06/29 02:39:41;;;;;;;57.40;2.93;;;;;;;;;;5032799;28;20515;-68
2023/06/29 02:42:08;;;;;;;57.00;2.30;;;;;;;;;;5032335;28;20972;-68
2023/06/29 02:44:35;;;;;;;56.93;2.40;;;;;;;;;;5032326;28;20963;-68
2023/06/29 02:47:02;;;;;;;56.97;2.40;;;;;;;;;;5032077;28;21032;-68
2023/06/29 02:49:29;;;;;;;56.97;2.30;;;;;;;;;;5032302;28;20925;-67
2023/06/29 02:51:57;;;;;;;57.60;3.00;;;;;;;;;;5032335;28;20448;-67
2023/06/29 02:54:24;;;;;;;56.87;2.40;;;;;;;;;;5032201;28;20816;-68
2023/06/29 02:56:51;;;;;;;57.50;3.40;;;;;;;;;;5031010;28;20821;-67
2023/06/29 02:59:19;;;;;;;57.70;2.53;;;;;;;;;;5032381;28;20485;-68
2023/06/29 03:01:46;;;;;;;56.97;2.50;;;;;;;;;;5031985;28;20460;-67
2023/06/29 03:04:13;;;;;;;57.20;2.30;;;;;;;;;;5032006;28;20461;-67
2023/06/29 03:06:40;;;;;;;56.97;2.27;;;;;;;;;;5031616;28;20465;-67
2023/06/29 03:09:08;;;;;;;57.30;2.40;;;;;;;;;;5031908;28;20460;-67
2023/06/29 03:11:35;;;;;;;57.27;2.90;;;;;;;;;;5031754;28;20452;-68
2023/06/29 03:14:02;;;;;;;56.77;2.30;;;;;;;;;;5031897;28;20460;-67
2023/06/29 03:16:29;;;;;;;57.30;2.80;;;;;;;;;;5031273;28;20465;-68
2023/06/29 03:18:56;;;;;;;57.30;2.60;;;;;;;;;;5031626;28;20481;-68
2023/06/29 03:21:23;;;;;;;56.83;2.33;;;;;;;;;;5031650;28;20460;-68
2023/06/29 03:23:50;;;;;;;57.07;2.40;;;;;;;;;;5031550;28;20450;-68
2023/06/29 03:26:19;;;;;;;57.07;2.20;;;;;;;;;;5031166;28;21007;-68
2023/06/29 03:28:46;;;;;;;56.97;2.87;;;;;;;;;;5031788;28;20471;-68
2023/06/29 03:31:13;;;;;;;56.67;2.00;;;;;;;;;;5031658;28;20453;-68
2023/06/29 03:33:40;;;;;;;56.83;2.30;;;;;;;;;;5031430;28;20453;-67
2023/06/29 03:36:11;;;;;;;57.10;2.40;;;;;;;;;;5031020;28;20476;-68
2023/06/29 03:38:38;;;;;;;57.20;2.77;;;;;;;;;;5030890;28;20460;-68
2023/06/29 03:41:05;;;;;;;57.23;3.20;;;;;;;;;;5031435;28;20449;-68
2023/06/29 03:43:33;;;;;;;68.20;2.37;;;;;;;;;;5031529;28;20444;-67
2023/06/29 03:46:00;;;;;;;57.00;2.40;;;;;;;;;;5031058;28;21023;-68
2023/06/29 03:48:28;;;;;;;57.07;2.60;;;;;;;;;;5031292;28;20445;-68
2023/06/29 03:50:55;;;;;;;57.20;2.70;;;;;;;;;;5031199;28;20453;-67
2023/06/29 03:53:22;;;;;;;57.07;2.30;;;;;;;;;;5031463;28;20523;-68
2023/06/29 03:55:49;;;;;;;57.13;2.50;;;;;;;;;;5031070;28;20481;-67
2023/06/29 03:58:16;;;;;;;57.27;2.53;;;;;;;;;;5031654;28;20456;-68
2023/06/29 04:00:45;;;;;;;57.07;2.23;;;;;;;;;;5031558;28;20488;-68
2023/06/29 04:03:12;;;;;;;57.00;2.27;;;;;;;;;;5031315;28;20449;-67
2023/06/29 04:05:40;;;;;;;57.20;2.60;;;;;;;;;;5030655;28;20460;-67
2023/06/29 04:08:07;;;;;;;56.83;2.53;;;;;;;;;;5031169;28;20449;-68
2023/06/29 04:10:34;;;;;;;58.47;2.83;;;;;;;;;;5031281;28;20460;-68
2023/06/29 04:13:01;;;;;;;57.37;2.97;;;;;;;;;;5031101;28;20794;-68
2023/06/29 04:15:28;;;;;;;57.00;2.60;;;;;;;;;;5031006;28;20445;-67
2023/06/29 04:17:57;;;;;;;57.07;2.60;;;;;;;;;;5030991;28;20535;-68
2023/06/29 04:20:24;;;;;;;57.07;2.57;;;;;;;;;;5031469;28;20572;-68
2023/06/29 04:22:51;;;;;;;57.10;2.50;;;;;;;;;;5030935;28;20449;-68
2023/06/29 04:25:18;;;;;;;57.13;2.67;;;;;;;;;;5030780;28;20467;-68
2023/06/29 04:27:45;;;;;;;58.70;2.77;;;;;;;;;;5030925;28;20476;-67
2023/06/29 04:30:12;;;;;;;57.07;2.20;;;;;;;;;;5030995;28;20445;-68
2023/06/29 04:32:40;;;;;;;57.00;2.50;;;;;;;;;;5030792;28;20453;-68
2023/06/29 04:35:09;;;;;;;57.40;2.60;;;;;;;;;;5030614;28;20941;-67
2023/06/29 04:37:40;;;;;;;57.10;2.47;;;;;;;;;;5030813;28;20473;-68
2023/06/29 04:40:09;;;;;;;57.47;2.83;;;;;;;;;;5031029;28;20786;-67
2023/06/29 04:42:44;;;;;;;57.07;2.50;;;;;;;;;;5031115;28;20536;-68
2023/06/29 04:45:17;;;;;;;57.13;2.47;;;;;;;;;;5030376;28;20444;-67
2023/06/29 04:47:44;;;;;;;57.30;2.90;;;;;;;;;;5030827;28;20531;-68
2023/06/29 04:50:13;;;;;;;57.20;2.50;;;;;;;;;;5031814;28;20444;-68
2023/06/29 04:52:40;;;;;;;57.10;2.40;;;;;;;;;;5034555;28;20449;-67
2023/06/29 04:55:08;;;;;;;56.80;2.60;;;;;;;;;;5034136;28;20963;-68
2023/06/29 04:57:35;;;;;;;56.87;2.50;;;;;;;;;;5033694;28;20500;-67
2023/06/29 05:00:04;;;;;;;57.20;2.40;;;;;;;;;;5026304;28;20836;-68
2023/06/29 05:02:33;;;;;;;57.80;3.17;;;;;;;;;;5034772;28;20461;-67
2023/06/29 05:05:00;;;;;;;57.10;2.40;;;;;;;;;;5034256;28;20480;-69
2023/06/29 05:07:28;;;;;;;57.03;2.60;;;;;;;;;;5033921;28;20465;-68
2023/06/29 05:09:56;;;;;;;57.33;2.50;;;;;;;;;;5034206;28;20460;-68
2023/06/29 05:12:23;;;;;;;56.90;2.40;;;;;;;;;;5034189;28;20864;-67
2023/06/29 05:14:50;;;;;;;56.70;2.60;;;;;;;;;;5034574;28;20448;-67
2023/06/29 05:17:18;;;;;;;56.80;2.40;;;;;;;;;;5033798;28;20472;-67
2023/06/29 05:19:45;;;;;;;57.07;2.67;;;;;;;;;;5033944;28;20996;-67
2023/06/29 05:22:12;;;;;;;56.87;2.60;;;;;;;;;;5033877;28;20821;-68
2023/06/29 05:24:40;;;;;;;56.90;2.60;;;;;;;;;;5033787;28;20449;-67
2023/06/29 05:27:08;;;;;;;56.90;2.30;;;;;;;;;;5033559;28;20980;-68
2023/06/29 05:29:35;;;;;;;57.10;3.03;;;;;;;;;;5034200;28;20499;-68
2023/06/29 05:32:02;;;;;;;57.00;2.50;;;;;;;;;;5033801;28;20449;-68
2023/06/29 05:34:29;;;;;;;57.00;2.60;;;;;;;;;;5033817;28;20453;-68
2023/06/29 05:36:56;;;;;;;57.30;3.10;;;;;;;;;;5033351;28;20493;-67
2023/06/29 05:39:23;;;;;;;57.10;2.40;;;;;;;;;;5034106;28;20611;-67
2023/06/29 05:41:52;;;;;;;56.80;2.37;;;;;;;;;;5033807;28;20452;-68
2023/06/29 05:44:19;;;;;;;56.97;2.47;;;;;;;;;;5033505;28;20449;-68
2023/06/29 05:46:46;;;;;;;57.00;2.33;;;;;;;;;;5033255;28;20476;-68
2023/06/29 05:49:13;;;;;;;57.37;3.00;;;;;;;;;;5033472;28;20945;-68
2023/06/29 05:51:42;;;;;;;56.80;2.27;;;;;;;;;;5033242;28;20445;-68
2023/06/29 05:54:09;;;;;;;57.00;2.40;;;;;;;;;;5033542;28;20539;-68
2023/06/29 05:56:36;;;;;;;57.17;2.70;;;;;;;;;;5032952;28;20507;-68
2023/06/29 05:59:04;;;;;;;56.80;2.50;;;;;;;;;;5033271;28;20445;-68
2023/06/29 06:01:32;;;;;;;57.70;3.17;;;;;;;;;;5032617;28;20496;-67
2023/06/29 06:03:59;;;;;;;56.83;2.83;;;;;;;;;;5033184;28;20449;-68
2023/06/29 06:06:30;;;;;;;56.70;2.40;;;;;;;;;;5032649;28;20527;-68
2023/06/29 06:08:57;;;;;;;56.60;2.50;;;;;;;;;;5033151;28;20500;-68
2023/06/29 06:11:24;;;;;;;56.70;2.17;;;;;;;;;;5033092;28;20445;-68
2023/06/29 06:13:51;;;;;;;57.80;3.03;;;;;;;;;;5033018;28;20452;-68
2023/06/29 06:16:20;;;;;;;56.67;2.30;;;;;;;;;;5032605;28;20580;-68
2023/06/29 06:18:47;;;;;;;57.47;2.60;;;;;;;;;;5032694;28;20453;-68
2023/06/29 06:21:14;;;;;;;57.17;2.60;;;;;;;;;;5032439;28;20492;-68
2023/06/29 06:23:41;;;;;;;56.80;2.30;;;;;;;;;;5032854;28;20453;-68
2023/06/29 06:26:08;;;;;;;56.77;2.40;;;;;;;;;;5032575;28;20822;-68
2023/06/29 06:28:35;;;;;;;56.90;2.70;;;;;;;;;;5032834;28;20446;-68
2023/06/29 06:31:02;;;;;;;56.77;2.50;;;;;;;;;;5032813;28;20445;-68
2023/06/29 06:33:32;;;;;;;56.63;2.10;;;;;;;;;;5032467;28;20448;-68
2023/06/29 06:36:00;;;;;;;56.43;2.20;;;;;;;;;;5032229;28;20504;-68
2023/06/29 06:38:27;;;;;;;57.23;3.03;;;;;;;;;;5032606;28;20481;-68
2023/06/29 06:40:54;;;;;;;56.90;2.20;;;;;;;;;;5032434;28;20484;-68
2023/06/29 06:43:21;;;;;;;57.20;2.63;;;;;;;;;;5032473;28;20452;-68
2023/06/29 06:45:48;;;;;;;56.80;2.20;;;;;;;;;;5031926;28;20476;-68
2023/06/29 06:48:15;;;;;;;56.77;2.30;;;;;;;;;;5032162;28;20453;-68
2023/06/29 06:50:43;;;;;;;57.00;2.73;;;;;;;;;;5032488;28;20445;-68
2023/06/29 06:53:11;;;;;;;57.00;2.80;;;;;;;;;;5032232;28;20460;-68
2023/06/29 06:55:38;;;;;;;56.43;2.10;;;;;;;;;;5031795;28;20456;-68
2023/06/29 06:58:05;;;;;;;56.83;2.40;;;;;;;;;;5032102;28;20449;-68
2023/06/29 07:00:32;;;;;;;56.80;2.10;;;;;;;;;;5031879;28;21063;-68
2023/06/29 07:02:59;;;;;;;56.73;2.40;;;;;;;;;;5032046;28;20956;-68
2023/06/29 07:05:26;;;;;;;56.80;2.70;;;;;;;;;;5031687;28;20445;-68
2023/06/29 07:07:54;;;;;;;56.20;2.27;;;;;;;;;;5031933;28;20449;-68
2023/06/29 07:10:22;;;;;;;57.20;2.93;;;;;;;;;;5031814;28;20448;-70
2023/06/29 07:12:49;;;;;;;56.77;2.30;;;;;;;;;;5031204;28;20454;-68
2023/06/29 07:15:16;;;;;;;56.37;2.00;;;;;;;;;;5031462;28;20510;-68
2023/06/29 07:17:43;;;;;;;56.73;2.50;;;;;;;;;;5031624;28;20514;-68
2023/06/29 07:20:12;;;;;;;57.10;2.43;;;;;;;;;;5031743;28;20512;-69
2023/06/29 07:22:39;;;;;;;56.80;2.57;;;;;;;;;;5031854;28;20453;-69
2023/06/29 07:25:11;;;;;;;56.67;2.23;;;;;;;;;;5031365;28;20455;-69
2023/06/29 07:27:38;;;;;;;57.20;2.53;;;;;;;;;;5031377;28;20527;-67
2023/06/29 07:30:06;;;;;;;57.00;2.30;;;;;;;;;;5031804;28;20448;-67
2023/06/29 07:32:33;;;;;;;59.43;3.17;;;;;;;;;;5031886;28;20468;-68
2023/06/29 07:35:00;;;;;;;56.77;2.03;;;;;;;;;;5031402;28;20986;-68
2023/06/29 07:37:27;;;;;;;56.80;2.10;;;;;;;;;;5031500;28;20468;-68
2023/06/29 07:39:54;;;;;;;56.60;1.93;;;;;;;;;;5031478;28;20448;-67
2023/06/29 07:42:22;;;;;;;57.27;2.70;;;;;;;;;;5031177;28;20454;-69
2023/06/29 07:44:49;;;;;;;56.90;2.07;;;;;;;;;;5031525;28;20452;-68
2023/06/29 07:47:17;;;;;;;56.70;2.23;;;;;;;;;;5031069;28;20496;-68
2023/06/29 07:49:44;;;;;;;56.53;2.37;;;;;;;;;;5031392;28;20456;-68
2023/06/29 07:52:11;;;;;;;56.57;2.27;;;;;;;;;;5031224;28;20449;-68
2023/06/29 07:54:38;;;;;;;57.30;3.10;;;;;;;;;;5031735;28;20453;-69
2023/06/29 07:57:05;;;;;;;56.80;2.30;;;;;;;;;;5030713;28;20496;-68
2023/06/29 07:59:33;;;;;;;56.70;2.20;;;;;;;;;;5031361;28;20449;-69
2023/06/29 08:02:00;;;;;;;56.67;2.20;;;;;;;;;;5031418;28;20492;-68
2023/06/29 08:04:28;;;;;;;56.40;2.40;;;;;;;;;;5031201;28;20460;-68
2023/06/29 08:06:55;;;;;;;56.17;2.30;;;;;;;;;;5030731;28;20473;-69
2023/06/29 08:09:22;;;;;;;56.67;2.50;;;;;;;;;;5030832;28;20979;-69
2023/06/29 08:11:49;;;;;;;56.47;2.07;;;;;;;;;;5031103;28;20538;-69
2023/06/29 08:14:16;;;;;;;56.60;2.13;;;;;;;;;;5031168;28;20444;-69
2023/06/29 08:16:44;;;;;;;56.67;2.17;;;;;;;;;;5030496;28;20476;-69
2023/06/29 08:19:11;;;;;;;56.60;2.17;;;;;;;;;;5030191;28;20453;-70
2023/06/29 08:21:38;;;;;;;57.37;2.37;;;;;;;;;;5030645;28;20481;-69
2023/06/29 08:24:06;;;;;;;56.87;2.27;;;;;;;;;;5031927;28;20449;-68
2023/06/29 08:26:34;;;;;;;56.17;1.80;;;;;;;;;;5034533;28;20469;-68
2023/06/29 08:29:01;;;;;;;56.50;1.93;;;;;;;;;;5034745;28;20937;-69
2023/06/29 08:31:28;;;;;;;56.60;2.20;;;;;;;;;;5034882;28;20463;-69
2023/06/29 08:33:57;;;;;;;56.70;2.00;;;;;;;;;;5034832;28;20448;-69
2023/06/29 08:36:25;;;;;;;56.20;2.20;;;;;;;;;;5033788;28;20469;-69
2023/06/29 08:38:52;;;;;;;56.67;2.10;;;;;;;;;;5034884;28;21016;-69
2023/06/29 08:41:19;;;;;;;56.27;1.90;;;;;;;;;;5034716;28;20508;-69
2023/06/29 08:43:46;;;;;;;56.60;2.67;;;;;;;;;;5034680;28;20449;-70
2023/06/29 08:46:13;;;;;;;56.57;1.90;;;;;;;;;;5034202;28;20472;-68
2023/06/29 08:48:43;;;;;;;56.63;2.10;;;;;;;;;;5034427;28;20491;-68
2023/06/29 08:51:12;;;;;;;56.07;1.90;;;;;;;;;;5034803;28;20449;-68
2023/06/29 08:53:41;;;;;;;56.50;2.00;;;;;;;;;;5034846;28;20448;-68
2023/06/29 08:56:08;;;;;;;56.57;2.10;;;;;;;;;;5034127;28;20852;-68
2023/06/29 08:58:35;;;;;;;56.30;1.77;;;;;;;;;;5034524;28;20455;-68
2023/06/29 09:01:03;;;;;;;56.20;1.90;;;;;;;;;;5034249;28;20487;-68
2023/06/29 09:03:30;;;;;;;56.17;1.90;;;;;;;;;;5034237;28;20460;-68
2023/06/29 09:05:57;;;;;;;56.50;2.13;;;;;;;;;;5034075;28;20471;-68
2023/06/29 09:08:26;;;;;;;56.27;1.83;;;;;;;;;;5034231;28;20460;-69
2023/06/29 09:10:54;;;;;;;56.27;1.60;;;;;;;;;;5034008;28;20449;-69
2023/06/29 09:13:26;;;;;;;56.47;1.90;;;;;;;;;;5034316;28;20544;-68
2023/06/29 09:15:54;;;;;;;56.17;1.70;;;;;;;;;;5033795;28;20527;-69
2023/06/29 09:18:22;;;;;;;56.20;1.90;;;;;;;;;;5034074;28;21023;-68
2023/06/29 09:21:00;;;;;;;56.20;1.90;;;;;;;;;;5034140;28;20484;-69
2023/06/29 09:23:30;;;;;;;56.37;1.90;;;;;;;;;;5034128;28;20860;-68
2023/06/29 09:25:57;;;;;;;56.20;1.70;;;;;;;;;;5033495;28;20473;-69
2023/06/29 09:28:25;;;;;;;55.80;1.87;;;;;;;;;;5033810;28;20547;-69
2023/06/29 09:30:52;;;;;;;56.10;2.00;;;;;;;;;;5033639;28;20910;-68
2023/06/29 09:33:21;;;;;;;56.27;2.00;;;;;;;;;;5034170;28;20453;-69
2023/06/29 09:35:49;;;;;;;56.17;1.77;;;;;;;;;;5032942;28;20466;-69
2023/06/29 09:38:16;;;;;;;55.77;1.50;;;;;;;;;;5033845;28;20457;-69
2023/06/29 09:40:48;;;;;;;56.27;1.87;;;;;;;;;;5033622;28;20484;-67
2023/06/29 09:43:19;;;;;;;56.20;1.70;;;;;;;;;;5033567;28;20449;-66
2023/06/29 09:45:46;;;;;;;56.27;1.73;;;;;;;;;;5033597;28;20734;-67
2023/06/29 09:48:13;;;;;;;56.40;1.90;;;;;;;;;;5033551;28;20824;-67
2023/06/29 09:50:41;;;;;;;56.10;1.80;;;;;;;;;;5033419;28;20478;-67
2023/06/29 09:53:09;;;;;;;56.20;1.93;;;;;;;;;;5033329;28;20452;-67
2023/06/29 09:55:38;;;;;;;56.20;1.67;;;;;;;;;;5032775;28;20485;-68
2023/06/29 09:58:07;;;;;;;55.77;1.60;;;;;;;;;;5033514;28;20532;-67
2023/06/29 10:00:34;;;;;;;56.27;1.70;;;;;;;;;;5033310;28;20449;-69
2023/06/29 10:03:01;;;;;;;56.67;1.97;;;;;;;;;;5033372;28;20459;-69
2023/06/29 10:05:30;;;;;;;55.77;1.57;;;;;;;;;;5032806;28;20984;-69
2023/06/29 10:07:58;;;;;;;56.90;2.07;;;;;;;;;;5033035;28;20826;-69
2023/06/29 10:10:25;;;;;;;58.00;2.60;;;;;;;;;;5033108;28;20809;-69
2023/06/29 10:12:55;;;;;;;55.90;1.60;;;;;;;;;;5033236;28;20445;-69
2023/06/29 10:15:26;;;;;;;56.57;2.10;;;;;;;;;;5032925;28;20460;-69
2023/06/29 10:17:55;;;;;;;55.97;1.83;;;;;;;;;;5033524;28;20456;-69
2023/06/29 10:20:23;;;;;;;55.67;1.60;;;;;;;;;;5032351;28;20453;-69
2023/06/29 10:22:50;;;;;;;55.73;1.77;;;;;;;;;;5032607;28;20587;-69
2023/06/29 10:25:20;;;;;;;55.77;1.70;;;;;;;;;;5032564;28;20820;-67
2023/06/29 10:27:47;;;;;;;56.40;2.00;;;;;;;;;;5032890;28;20473;-67
2023/06/29 10:30:19;;;;;;;55.53;1.60;;;;;;;;;;5032630;28;20457;-67
2023/06/29 10:32:49;;;;;;;55.63;1.80;;;;;;;;;;5032592;28;20454;-67
2023/06/29 10:35:16;;;;;;;55.60;1.67;;;;;;;;;;5032450;28;20452;-67
2023/06/29 10:37:44;;;;;;;55.70;1.80;;;;;;;;;;5032775;28;20852;-67
2023/06/29 10:40:15;;;;;;;55.90;1.87;;;;;;;;;;5032496;28;20453;-67
2023/06/29 10:42:50;;;;;;;55.80;1.80;;;;;;;;;;5032632;28;20996;-67
2023/06/29 10:45:33;;;;;;;55.87;1.63;;;;;;;;;;5031988;28;20475;-67
2023/06/29 10:48:03;;;;;;;55.77;1.70;;;;;;;;;;5031770;28;20481;-67
2023/06/29 10:50:30;;;;;;;55.67;1.90;;;;;;;;;;5032552;28;20453;-67
2023/06/29 10:52:59;;;;;;;56.50;2.10;;;;;;;;;;5032477;28;20449;-67
2023/06/29 10:55:28;;;;;;;55.57;1.80;;;;;;;;;;5032057;28;20449;-67
2023/06/29 10:57:56;;;;;;;55.40;1.70;;;;;;;;;;5032186;28;20548;-67
2023/06/29 11:00:24;;;;;;;55.47;1.77;;;;;;;;;;5032317;28;20452;-67
2023/06/29 11:02:51;;;;;;;55.20;1.90;;;;;;;;;;5032082;28;20485;-67
2023/06/29 11:05:21;;;;;;;55.50;2.07;;;;;;;;;;5031688;28;20803;-68
2023/06/29 11:07:50;;;;;;;55.00;1.70;;;;;;;;;;5031773;28;20485;-68
2023/06/29 11:10:17;;;;;;;55.17;1.70;;;;;;;;;;5031920;28;20933;-67
2023/06/29 11:12:44;;;;;;;55.23;1.90;;;;;;;;;;5031950;28;20449;-68
2023/06/29 11:15:13;;;;;;;54.97;1.80;;;;;;;;;;5031863;28;20441;-68
2023/06/29 11:17:40;;;;;;;55.10;1.70;;;;;;;;;;5031686;28;20473;-68
2023/06/29 11:20:08;;;;;;;55.00;2.20;;;;;;;;;;5031661;28;20445;-67
2023/06/29 11:22:37;;;;;;;55.00;1.87;;;;;;;;;;5031626;28;20856;-68
2023/06/29 11:25:04;;;;;;;55.07;1.90;;;;;;;;;;5031450;28;20457;-68
2023/06/29 11:27:31;;;;;;;55.00;1.90;;;;;;;;;;5030912;28;20500;-68
2023/06/29 11:29:58;;;;;;;55.20;2.20;;;;;;;;;;5031607;28;20459;-68
2023/06/29 11:32:26;;;;;;;55.60;1.90;;;;;;;;;;5031449;28;20441;-68
2023/06/29 11:34:57;;;;;;;54.90;1.80;;;;;;;;;;5029968;28;20442;-69
2023/06/29 11:37:25;;;;;;;54.80;1.83;;;;;;;;;;5031223;28;20969;-67
2023/06/29 11:39:53;;;;;;;54.93;2.03;;;;;;;;;;5029777;28;20449;-68
2023/06/29 11:42:21;;;;;;;54.90;1.67;;;;;;;;;;5031496;28;20481;-68
2023/06/29 11:44:49;;;;;;;55.30;1.83;;;;;;;;;;5031176;28;20453;-68
2023/06/29 11:47:17;;;;;;;54.80;1.70;;;;;;;;;;5031026;28;20465;-68
2023/06/29 11:49:45;;;;;;;55.67;2.53;;;;;;;;;;5031568;28;20461;-68
2023/06/29 11:52:12;;;;;;;54.70;1.70;;;;;;;;;;5031229;28;20818;-69
2023/06/29 11:54:39;;;;;;;55.07;2.27;;;;;;;;;;5031636;28;20472;-68
2023/06/29 11:57:09;;;;;;;54.60;1.90;;;;;;;;;;5031079;28;20844;-68
2023/06/29 11:59:39;;;;;;;55.20;2.03;;;;;;;;;;5031039;28;20460;-69
2023/06/29 12:02:06;;;;;;;55.47;2.07;;;;;;;;;;5031376;28;20477;-68
2023/06/29 12:04:33;;;;;;;54.77;1.70;;;;;;;;;;5031306;28;20902;-68
2023/06/29 12:07:00;;;;;;;55.30;2.47;;;;;;;;;;5030373;28;20469;-70
2023/06/29 12:09:31;;;;;;;56.87;2.40;;;;;;;;;;5030966;28;20465;-69
2023/06/29 12:11:58;;;;;;;55.67;2.23;;;;;;;;;;5031082;28;20504;-69
2023/06/29 12:14:28;;;;;;;55.40;1.80;;;;;;;;;;5031094;28;20456;-69
2023/06/29 12:16:57;;;;;;;55.60;2.03;;;;;;;;;;5030795;28;20531;-69
2023/06/29 12:19:27;;;;;;;55.77;1.97;;;;;;;;;;5030463;28;20832;-68
2023/06/29 12:21:54;;;;;;;56.07;1.90;;;;;;;;;;5030700;28;20485;-68
2023/06/29 12:24:22;;;;;;;55.93;2.00;;;;;;;;;;5031122;28;20477;-68
2023/06/29 12:26:49;;;;;;;56.20;1.97;;;;;;;;;;5030635;28;20479;-68
2023/06/29 12:29:16;;;;;;;55.70;1.80;;;;;;;;;;5031077;28;20449;-69
2023/06/29 12:31:44;;;;;;;55.60;1.60;;;;;;;;;;5030838;28;20441;-70
2023/06/29 12:34:11;;;;;;;55.60;1.80;;;;;;;;;;5031350;28;20456;-69
2023/06/29 12:36:38;;;;;;;56.37;2.80;;;;;;;;;;5030374;28;20473;-69
2023/06/29 12:39:06;;;;;;;55.57;2.33;;;;;;;;;;5031048;28;20795;-69
2023/06/29 12:41:33;;;;;;;55.80;2.23;;;;;;;;;;5030859;28;20556;-69
2023/06/29 12:44:00;;;;;;;55.27;1.73;;;;;;;;;;5030758;28;20465;-69
2023/06/29 12:46:27;;;;;;;56.07;2.10;;;;;;;;;;5030116;28;20472;-69
2023/06/29 12:48:55;;;;;;;55.10;1.67;;;;;;;;;;5030864;28;20445;-69
2023/06/29 12:51:22;;;;;;;55.33;1.60;;;;;;;;;;5030887;28;20467;-69
2023/06/29 12:53:49;;;;;;;55.90;2.27;;;;;;;;;;5030823;28;20445;-69
2023/06/29 12:56:16;;;;;;;55.57;1.77;;;;;;;;;;5030380;28;20476;-69
2023/06/29 12:58:44;;;;;;;55.77;1.80;;;;;;;;;;5030705;28;20945;-69
2023/06/29 13:01:11;;;;;;;55.77;2.00;;;;;;;;;;5030842;28;20484;-69
2023/06/29 13:03:38;;;;;;;56.10;1.80;;;;;;;;;;5030837;28;20489;-69
2023/06/29 13:06:06;;;;;;;55.90;1.80;;;;;;;;;;5030176;28;20480;-69
2023/06/29 13:08:33;;;;;;;56.10;1.90;;;;;;;;;;5030515;28;20461;-69
2023/06/29 13:11:00;;;;;;;56.17;2.00;;;;;;;;;;5031238;28;20452;-69
2023/06/29 13:13:27;;;;;;;56.53;2.07;;;;;;;;;;5034256;28;20449;-69
2023/06/29 13:15:55;;;;;;;56.20;2.00;;;;;;;;;;5033663;28;20571;-69
2023/06/29 13:18:22;;;;;;;56.27;1.83;;;;;;;;;;5034025;28;20460;-69
2023/06/29 13:20:49;;;;;;;56.27;2.00;;;;;;;;;;5034418;28;20451;-69
2023/06/29 13:23:17;;;;;;;56.10;1.80;;;;;;;;;;5034087;28;20488;-69
2023/06/29 13:25:44;;;;;;;56.17;1.90;;;;;;;;;;5033580;28;20453;-68
2023/06/29 13:28:11;;;;;;;57.23;2.00;;;;;;;;;;5033845;28;20452;-68
2023/06/29 13:30:40;;;;;;;56.97;2.10;;;;;;;;;;5033789;28;20453;-68
2023/06/29 13:33:07;;;;;;;57.07;2.37;;;;;;;;;;5033891;28;20483;-68
2023/06/29 13:35:34;;;;;;;56.37;1.80;;;;;;;;;;5033295;28;20445;-69
2023/06/29 13:38:02;;;;;;;56.10;1.70;;;;;;;;;;5033737;28;20445;-68
2023/06/29 13:40:30;;;;;;;56.03;1.70;;;;;;;;;;5033511;28;20456;-70
2023/06/29 13:42:57;;;;;;;56.40;1.80;;;;;;;;;;5033666;28;20848;-69
2023/06/29 13:45:24;;;;;;;56.27;1.90;;;;;;;;;;5033500;28;20541;-69
2023/06/29 13:47:58;;;;;;;57.03;2.00;;;;;;;;;;5033505;28;20469;-69
2023/06/29 13:50:25;;;;;;;55.83;1.70;;;;;;;;;;5033522;28;20449;-69
2023/06/29 13:52:53;;;;;;;55.70;1.60;;;;;;;;;;5033546;28;20472;-68
2023/06/29 13:55:21;;;;;;;56.07;1.80;;;;;;;;;;5032963;28;20449;-69
2023/06/29 13:57:49;;;;;;;56.20;2.63;;;;;;;;;;5033476;28;20495;-69
2023/06/29 14:00:17;;;;;;;55.90;1.70;;;;;;;;;;5033532;28;20452;-69
2023/06/29 14:02:44;;;;;;;56.47;2.27;;;;;;;;;;5033161;28;20484;-68
2023/06/29 14:05:11;;;;;;;55.97;1.67;;;;;;;;;;5032871;28;20964;-69
2023/06/29 14:07:38;;;;;;;56.20;1.77;;;;;;;;;;5032995;28;20833;-69
2023/06/29 14:10:06;;;;;;;56.10;1.90;;;;;;;;;;5033090;28;20804;-69
2023/06/29 14:12:33;;;;;;;56.30;1.90;;;;;;;;;;5033098;28;20445;-69
2023/06/29 14:15:01;;;;;;;56.27;2.10;;;;;;;;;;5032955;28;20472;-69
2023/06/29 14:17:28;;;;;;;55.97;1.90;;;;;;;;;;5033033;28;20476;-69
2023/06/29 14:19:55;;;;;;;55.90;1.90;;;;;;;;;;5032947;28;20454;-68
2023/06/29 14:22:22;;;;;;;56.20;1.97;;;;;;;;;;5032490;28;20489;-69
2023/06/29 14:24:49;;;;;;;55.90;1.87;;;;;;;;;;5032819;28;20457;-69
2023/06/29 14:27:18;;;;;;;56.10;2.17;;;;;;;;;;5032397;28;20469;-69
2023/06/29 14:29:45;;;;;;;55.57;1.70;;;;;;;;;;5033071;28;20458;-69
2023/06/29 14:32:14;;;;;;;55.87;1.57;;;;;;;;;;5032808;28;20445;-69
2023/06/29 14:34:41;;;;;;;56.10;2.10;;;;;;;;;;5032664;28;20445;-69